createdAt,value
2022-08-14T00:00:46.483Z,4.80
2022-08-14T00:03:29.367Z,5.65
2022-08-14T00:06:01.984Z,5.13
2022-08-14T00:08:45.448Z,5.35
2022-08-14T00:11:14.828Z,5.43
2022-08-14T00:13:52.597Z,5.55
2022-08-14T00:16:41.562Z,5.10
2022-08-14T00:19:19.701Z,5.28
2022-08-14T00:21:51.678Z,5.25
2022-08-14T00:24:23.005Z,5.20
2022-08-14T00:27:02.389Z,5.07
2022-08-14T00:29:40.115Z,4.63
2022-08-14T00:32:52.007Z,5.28
2022-08-14T00:35:02.617Z,5.22
2022-08-14T00:37:32.723Z,5.65
2022-08-14T00:40:03.078Z,4.90
2022-08-14T00:42:55.674Z,5.43
2022-08-14T00:45:25.665Z,5.18
2022-08-14T00:48:00.988Z,5.65
2022-08-14T00:50:31.301Z,5.40
2022-08-14T00:53:01.772Z,5.03
2022-08-14T00:55:31.402Z,5.55
2022-08-14T00:58:27.778Z,4.88
2022-08-14T01:01:05.597Z,4.95
2022-08-14T01:03:39.613Z,5.38
2022-08-14T01:06:16.911Z,4.75
2022-08-14T01:08:57.704Z,5.30
2022-08-14T01:11:35.240Z,4.97
2022-08-14T01:14:25.596Z,5.40
2022-08-14T01:16:55.915Z,5.22
2022-08-14T01:19:44.477Z,5.25
2022-08-14T01:22:18.895Z,5.32
2022-08-14T01:24:50.839Z,5.47
2022-08-14T01:27:24.347Z,5.65
2022-08-14T01:30:01.028Z,5.50
2022-08-14T01:32:45.246Z,5.50
2022-08-14T01:36:05.015Z,4.95
2022-08-14T01:38:14.965Z,5.43
2022-08-14T01:40:48.465Z,5.10
2022-08-14T01:43:18.608Z,5.32
2022-08-14T01:45:57.733Z,6.30
2022-08-14T01:48:37.364Z,5.90
2022-08-14T01:51:19.405Z,5.15
2022-08-14T01:53:54.698Z,6.18
2022-08-14T01:56:37.337Z,5.20
2022-08-14T01:59:18.161Z,5.35
2022-08-14T02:01:55.873Z,5.57
2022-08-14T02:04:54.731Z,5.50
2022-08-14T02:07:34.271Z,5.78
2022-08-14T02:10:15.991Z,6.30
2022-08-14T02:12:54.239Z,5.30
2022-08-14T02:15:26.766Z,5.78
2022-08-14T02:17:56.008Z,5.40
2022-08-14T02:20:25.819Z,5.53
2022-08-14T02:22:55.228Z,5.60
2022-08-14T02:25:29.729Z,5.22
2022-08-14T02:28:23.038Z,5.40
2022-08-14T02:30:52.342Z,6.00
2022-08-14T02:33:23.387Z,5.47
2022-08-14T02:36:45.995Z,5.18
2022-08-14T02:38:42.316Z,5.38
2022-08-14T02:41:15.204Z,5.38
2022-08-14T02:43:46.165Z,4.88
2022-08-14T02:46:20.334Z,5.75
2022-08-14T02:49:04.410Z,5.63
2022-08-14T02:51:36.530Z,5.50
2022-08-14T02:54:13.162Z,5.18
2022-08-14T02:57:15.784Z,5.95
2022-08-14T02:59:40.410Z,5.38
2022-08-14T03:02:33.523Z,5.95
2022-08-14T03:05:02.237Z,6.00
2022-08-14T03:07:31.378Z,5.80
2022-08-14T03:10:25.634Z,5.43
2022-08-14T03:12:51.969Z,6.05
2022-08-14T03:15:21.625Z,6.10
2022-08-14T03:17:57.320Z,5.10
2022-08-14T03:20:29.016Z,5.28
2022-08-14T03:23:03.266Z,5.90
2022-08-14T03:25:34.256Z,5.43
2022-08-14T03:28:14.753Z,6.03
2022-08-14T03:31:00.123Z,5.57
2022-08-14T03:33:38.441Z,5.40
2022-08-14T03:37:38.520Z,5.93
2022-08-14T03:39:15.351Z,5.88
2022-08-14T03:41:53.978Z,6.05
2022-08-14T03:45:25.298Z,5.35
2022-08-14T03:47:15.638Z,5.88
2022-08-14T03:49:49.940Z,6.15
2022-08-14T03:52:55.667Z,6.03
2022-08-14T03:55:12.536Z,5.90
2022-08-14T03:57:44.044Z,5.65
2022-08-14T04:00:42.783Z,5.43
2022-08-14T04:03:08.666Z,5.90
2022-08-14T04:05:43.485Z,5.93
2022-08-14T04:08:29.829Z,6.28
2022-08-14T04:11:02.024Z,6.45
2022-08-14T04:13:34.030Z,6.90
2022-08-14T04:16:12.333Z,5.70
2022-08-14T04:18:43.366Z,6.20
2022-08-14T04:21:14.853Z,7.05
2022-08-14T04:23:48.972Z,6.00
2022-08-14T04:26:42.129Z,6.18
2022-08-14T04:29:15.491Z,5.68
2022-08-14T04:33:00.930Z,5.90
2022-08-14T04:34:39.945Z,6.72
2022-08-14T04:37:29.062Z,6.05
2022-08-14T04:40:15.537Z,6.95
2022-08-14T04:43:02.489Z,6.20
2022-08-14T04:45:40.540Z,7.20
2022-08-14T04:48:12.925Z,6.47
2022-08-14T04:50:49.111Z,6.40
2022-08-14T04:53:34.664Z,5.22
2022-08-14T04:56:10.643Z,6.30
2022-08-14T04:59:01.549Z,6.18
2022-08-14T05:01:34.004Z,6.25
2022-08-14T05:04:16.151Z,6.57
2022-08-14T05:06:45.704Z,6.70
2022-08-14T05:09:18.586Z,6.55
2022-08-14T05:11:51.477Z,6.25
2022-08-14T05:14:45.866Z,5.78
2022-08-14T05:17:12.289Z,6.90
2022-08-14T05:21:04.235Z,6.97
2022-08-14T05:22:33.458Z,6.30
2022-08-14T05:25:03.784Z,5.90
2022-08-14T05:27:33.039Z,6.07
2022-08-14T05:30:06.489Z,7.32
2022-08-14T05:32:38.805Z,6.07
2022-08-14T05:35:11.644Z,5.78
2022-08-14T05:37:46.080Z,5.80
2022-08-14T05:40:15.395Z,5.77
2022-08-14T05:42:46.706Z,6.10
2022-08-14T05:45:22.218Z,6.10
2022-08-14T05:47:54.317Z,6.10
2022-08-14T05:50:25.014Z,5.80
2022-08-14T05:52:58.781Z,5.80
2022-08-14T05:55:28.227Z,5.90
2022-08-14T05:58:03.073Z,5.67
2022-08-14T06:00:38.784Z,4.67
2022-08-14T06:03:14.736Z,5.80
2022-08-14T06:05:46.974Z,5.80
2022-08-14T06:08:36.572Z,5.43
2022-08-14T06:11:20.041Z,5.50
2022-08-14T06:13:49.653Z,5.53
2022-08-14T06:16:21.307Z,4.93
2022-08-14T06:18:51.770Z,6.10
2022-08-14T06:21:24.377Z,5.07
2022-08-14T06:23:55.148Z,5.20
2022-08-14T06:26:30.144Z,5.20
2022-08-14T06:28:59.931Z,5.60
2022-08-14T06:31:29.107Z,5.20
2022-08-14T06:35:03.351Z,4.87
2022-08-14T06:36:48.750Z,5.20
2022-08-14T06:39:18.058Z,4.80
2022-08-14T06:42:06.464Z,5.03
2022-08-14T06:44:36.244Z,4.37
2022-08-14T06:47:06.230Z,3.97
2022-08-14T06:49:45.140Z,4.30
2022-08-14T06:52:26.221Z,4.57
2022-08-14T06:54:59.682Z,4.87
2022-08-14T06:57:38.789Z,3.97
2022-08-14T07:00:22.183Z,3.80
2022-08-14T07:03:14.212Z,4.03
2022-08-14T07:05:57.819Z,3.40
2022-08-14T07:08:32.115Z,4.10
2022-08-14T07:11:03.992Z,4.50
2022-08-14T07:13:33.616Z,3.40
2022-08-14T07:16:05.722Z,4.07
2022-08-14T07:18:37.257Z,4.50
2022-08-14T07:21:10.745Z,4.07
2022-08-14T07:23:44.266Z,4.07
2022-08-14T07:26:14.014Z,3.67
2022-08-14T07:28:44.550Z,3.57
2022-08-14T07:31:16.271Z,4.80
2022-08-14T07:33:50.648Z,3.80
2022-08-14T07:36:27.862Z,4.17
2022-08-14T07:39:12.344Z,4.00
2022-08-14T07:41:44.346Z,3.47
2022-08-14T07:44:29.687Z,4.40
2022-08-14T07:47:03.621Z,4.10
2022-08-14T07:49:33.738Z,3.40
2022-08-14T07:52:03.881Z,4.20
2022-08-14T07:54:34.404Z,4.03
2022-08-14T07:57:11.810Z,3.57
2022-08-14T07:59:44.421Z,3.70
2022-08-14T08:02:20.417Z,3.50
2022-08-14T08:04:55.128Z,3.97
2022-08-14T08:07:33.099Z,3.73
2022-08-14T08:10:31.108Z,4.10
2022-08-14T08:13:17.320Z,3.47
2022-08-14T08:15:48.344Z,3.50
2022-08-14T08:18:20.353Z,3.17
2022-08-14T08:20:59.707Z,3.30
2022-08-14T08:23:40.917Z,4.40
2022-08-14T08:26:21.870Z,3.53
2022-08-14T08:28:57.905Z,3.53
2022-08-14T08:31:32.647Z,3.40
2022-08-14T08:34:06.562Z,3.90
2022-08-14T08:36:42.467Z,3.40
2022-08-14T08:39:22.285Z,3.87
2022-08-14T08:41:54.067Z,4.17
2022-08-14T08:44:32.834Z,3.70
2022-08-14T08:47:06.270Z,3.63
2022-08-14T08:49:48.148Z,3.40
2022-08-14T08:52:31.802Z,3.30
2022-08-14T08:55:04.498Z,3.30
2022-08-14T08:57:37.930Z,3.73
2022-08-14T09:00:25.698Z,3.67
2022-08-14T09:03:03.191Z,3.27
2022-08-14T09:05:35.960Z,3.80
2022-08-14T09:08:30.799Z,3.37
2022-08-14T09:11:19.074Z,3.00
2022-08-14T09:13:53.567Z,3.63
2022-08-14T09:16:25.870Z,3.30
2022-08-14T09:18:55.884Z,3.73
2022-08-14T09:21:31.692Z,3.60
2022-08-14T09:24:28.867Z,4.10
2022-08-14T09:26:52.881Z,3.47
2022-08-14T09:29:23.987Z,3.70
2022-08-14T09:32:02.557Z,4.07
2022-08-14T09:34:58.874Z,3.40
2022-08-14T09:37:40.453Z,4.30
2022-08-14T09:40:22.639Z,3.70
2022-08-14T09:43:04.948Z,3.63
2022-08-14T09:45:53.621Z,3.47
2022-08-14T09:48:27.474Z,3.70
2022-08-14T09:54:19.623Z,3.97
2022-08-14T09:56:45.715Z,3.67
2022-08-14T09:59:22.196Z,3.47
2022-08-14T10:01:54.261Z,3.40
2022-08-14T10:04:34.171Z,4.70
2022-08-14T10:07:08.279Z,4.00
2022-08-14T10:09:57.619Z,3.83
2022-08-14T10:12:46.037Z,4.13
2022-08-14T10:15:21.414Z,3.80
2022-08-14T10:18:18.454Z,3.63
2022-08-14T10:21:09.562Z,3.77
2022-08-14T10:23:49.607Z,3.73
2022-08-14T10:26:22.676Z,4.00
2022-08-14T10:29:18.557Z,3.70
2022-08-14T10:31:45.874Z,3.90
2022-08-14T10:34:36.674Z,3.87
2022-08-14T10:37:14.673Z,3.80
2022-08-14T10:40:02.144Z,3.43
2022-08-14T10:42:40.295Z,3.87
2022-08-14T10:45:21.946Z,4.10
2022-08-14T10:48:08.855Z,3.80
2022-08-14T10:50:50.344Z,3.90
2022-08-14T10:53:32.978Z,4.10
2022-08-14T10:56:07.963Z,4.43
2022-08-14T10:59:03.573Z,3.50
2022-08-14T11:01:40.848Z,3.73
2022-08-14T11:04:25.239Z,3.80
2022-08-14T11:06:58.053Z,4.10
2022-08-14T11:09:32.014Z,4.07
2022-08-14T11:12:40.126Z,3.80
2022-08-14T11:15:11.313Z,4.20
2022-08-14T11:17:40.853Z,4.70
2022-08-14T11:20:17.433Z,4.33
2022-08-14T11:22:57.946Z,3.20
2022-08-14T11:25:43.328Z,4.30
2022-08-14T11:28:19.466Z,3.43
2022-08-14T11:30:54.343Z,4.00
2022-08-14T11:33:24.627Z,4.33
2022-08-14T11:35:59.605Z,4.63
2022-08-14T11:38:54.469Z,4.10
2022-08-14T11:41:39.181Z,3.57
2022-08-14T11:44:45.500Z,4.33
2022-08-14T11:47:20.871Z,4.17
2022-08-14T11:50:04.552Z,4.20
2022-08-14T11:52:40.241Z,3.93
2022-08-14T11:55:13.535Z,4.00
2022-08-14T11:57:59.712Z,4.37
2022-08-14T12:00:31.755Z,4.10
2022-08-14T12:03:25.517Z,3.60
2022-08-14T12:06:29.489Z,3.80
2022-08-14T12:09:29.716Z,3.97
2022-08-14T12:12:00.346Z,3.73
2022-08-14T12:14:35.345Z,4.33
2022-08-14T12:17:12.187Z,4.00
2022-08-14T12:19:53.724Z,3.90
2022-08-14T12:22:40.179Z,4.03
2022-08-14T12:25:20.059Z,3.90
2022-08-14T12:27:54.582Z,3.53
2022-08-14T12:30:39.455Z,3.97
2022-08-14T12:33:33.766Z,3.70
2022-08-14T12:36:09.916Z,4.23
2022-08-14T12:39:15.995Z,3.83
2022-08-14T12:41:53.793Z,3.60
2022-08-14T12:44:37.381Z,3.60
2022-08-14T12:47:23.479Z,3.67
2022-08-14T12:49:57.767Z,3.40
2022-08-14T12:52:43.144Z,3.30
2022-08-14T12:55:32.624Z,3.30
2022-08-14T12:58:52.457Z,3.63
2022-08-14T13:01:29.029Z,3.33
2022-08-14T13:04:10.454Z,3.63
2022-08-14T13:06:44.141Z,3.30
2022-08-14T13:09:16.397Z,3.80
2022-08-14T13:11:59.311Z,3.07
2022-08-14T13:14:41.072Z,3.50
2022-08-14T13:17:13.394Z,3.37
2022-08-14T13:19:48.868Z,3.40
2022-08-14T13:22:32.036Z,3.13
2022-08-14T13:25:06.208Z,3.33
2022-08-14T13:27:39.137Z,3.10
2022-08-14T13:30:14.599Z,3.00
2022-08-14T13:32:58.483Z,3.00
2022-08-14T13:35:28.304Z,3.07
2022-08-14T13:37:59.037Z,2.80
2022-08-14T13:40:29.909Z,3.30
2022-08-14T13:42:59.417Z,2.83
2022-08-14T13:45:34.098Z,2.80
2022-08-14T13:48:32.248Z,2.87
2022-08-14T13:51:10.772Z,2.63
2022-08-14T13:54:07.205Z,2.70
2022-08-14T13:56:40.741Z,2.40
2022-08-14T13:59:11.816Z,2.87
2022-08-14T14:01:45.822Z,2.93
2022-08-14T14:04:25.226Z,3.80
2022-08-14T14:06:55.446Z,3.23
2022-08-14T14:09:43.841Z,3.30
2022-08-14T14:12:36.626Z,2.90
2022-08-14T14:15:13.514Z,3.37
2022-08-14T14:17:46.828Z,3.23
2022-08-14T14:20:35.890Z,3.50
2022-08-14T14:23:12.058Z,3.10
2022-08-14T14:25:51.339Z,3.30
2022-08-14T14:28:32.323Z,3.03
2022-08-14T14:31:06.981Z,3.47
2022-08-14T14:33:47.748Z,2.90
2022-08-14T14:36:26.445Z,2.73
2022-08-14T14:38:57.788Z,2.73
2022-08-14T14:41:37.609Z,2.90
2022-08-14T14:44:16.054Z,2.63
2022-08-14T14:46:53.009Z,3.00
2022-08-14T14:49:31.901Z,3.60
2022-08-14T14:52:23.268Z,3.10
2022-08-14T14:54:58.215Z,3.00
2022-08-14T14:57:35.637Z,2.73
2022-08-14T15:00:12.625Z,2.47
2022-08-14T15:02:46.155Z,3.20
2022-08-14T15:05:19.010Z,2.40
2022-08-14T15:07:52.832Z,3.03
2022-08-14T15:10:28.231Z,2.90
2022-08-14T15:13:03.702Z,3.00
2022-08-14T15:15:37.460Z,2.50
2022-08-14T15:18:35.782Z,2.70
2022-08-14T15:21:02.995Z,2.90
2022-08-14T15:23:44.334Z,2.70
2022-08-14T15:26:30.881Z,3.13
2022-08-14T15:29:06.048Z,3.20
2022-08-14T15:31:37.211Z,3.80
2022-08-14T15:34:44.089Z,3.30
2022-08-14T15:37:05.381Z,2.73
2022-08-14T15:39:38.055Z,4.40
2022-08-14T15:42:14.766Z,3.57
2022-08-14T15:44:56.645Z,2.90
2022-08-14T15:47:29.317Z,2.90
2022-08-14T15:50:00.629Z,2.53
2022-08-14T15:52:34.851Z,3.07
2022-08-14T15:55:10.481Z,3.63
2022-08-14T15:58:02.185Z,3.20
2022-08-14T16:00:50.303Z,2.70
2022-08-14T16:03:35.755Z,3.33
2022-08-14T16:06:17.442Z,3.00
2022-08-14T16:08:50.104Z,3.13
2022-08-14T16:11:21.939Z,2.80
2022-08-14T16:13:52.009Z,3.23
2022-08-14T16:16:47.218Z,2.90
2022-08-14T16:19:23.842Z,3.17
2022-08-14T16:22:01.351Z,3.03
2022-08-14T16:25:00.286Z,2.60
2022-08-14T16:27:40.771Z,3.13
2022-08-14T16:30:24.591Z,2.60
2022-08-14T16:32:59.271Z,3.20
2022-08-14T16:35:59.678Z,3.07
2022-08-14T16:38:45.985Z,3.37
2022-08-14T16:41:23.193Z,4.03
2022-08-14T16:43:59.210Z,2.53
2022-08-14T16:46:32.618Z,2.53
2022-08-14T16:49:04.397Z,2.57
2022-08-14T16:51:38.445Z,2.77
2022-08-14T16:54:20.723Z,2.53
2022-08-14T16:56:50.827Z,2.40
2022-08-14T16:59:30.465Z,3.00
2022-08-14T17:02:18.813Z,2.87
2022-08-14T17:04:49.074Z,2.60
2022-08-14T17:07:18.471Z,2.93
2022-08-14T17:09:49.481Z,2.90
2022-08-14T17:12:33.666Z,2.77
2022-08-14T17:15:10.690Z,2.93
2022-08-14T17:17:54.399Z,2.80
2022-08-14T17:20:51.523Z,2.83
2022-08-14T17:23:19.492Z,2.60
2022-08-14T17:25:51.200Z,2.83
2022-08-14T17:28:52.427Z,2.80
2022-08-14T17:31:14.191Z,3.07
2022-08-14T17:33:52.642Z,2.57
2022-08-14T17:36:24.627Z,4.30
2022-08-14T17:39:06.707Z,3.70
2022-08-14T17:41:43.606Z,2.90
2022-08-14T17:44:33.992Z,3.50
2022-08-14T17:47:18.538Z,3.90
2022-08-14T17:49:53.598Z,3.30
2022-08-14T17:52:34.873Z,4.30
2022-08-14T17:56:00.359Z,3.77
2022-08-14T17:58:00.035Z,4.10
2022-08-14T18:00:30.524Z,3.40
2022-08-14T18:03:01.686Z,3.90
2022-08-14T18:06:09.915Z,3.77
2022-08-14T18:08:33.687Z,3.40
2022-08-14T18:11:15.291Z,3.83
2022-08-14T18:13:51.752Z,3.70
2022-08-14T18:16:22.918Z,3.37
2022-08-14T18:18:53.549Z,2.77
2022-08-14T18:21:42.050Z,2.67
2022-08-14T18:24:20.122Z,3.20
2022-08-14T18:27:06.922Z,3.07
2022-08-14T18:29:55.404Z,3.37
2022-08-14T18:32:46.228Z,3.87
2022-08-14T18:35:20.717Z,2.90
2022-08-14T18:37:55.810Z,2.90
2022-08-14T18:40:35.180Z,3.20
2022-08-14T18:43:09.220Z,2.80
2022-08-14T18:46:00.611Z,2.77
2022-08-14T18:48:50.958Z,3.07
2022-08-14T18:51:46.155Z,3.03
2022-08-14T18:54:32.832Z,3.43
2022-08-14T18:57:05.166Z,3.10
2022-08-14T18:59:43.217Z,3.13
2022-08-14T19:02:45.852Z,3.40
2022-08-14T19:05:14.982Z,2.90
2022-08-14T19:07:48.279Z,3.40
2022-08-14T19:10:37.250Z,3.20
2022-08-14T19:13:12.039Z,3.37
2022-08-14T19:15:45.502Z,3.43
2022-08-14T19:18:29.792Z,3.17
2022-08-14T19:21:01.738Z,3.50
2022-08-14T19:23:42.157Z,3.23
2022-08-14T19:26:36.632Z,3.27
2022-08-14T19:29:38.390Z,3.17
2022-08-14T19:32:40.744Z,3.60
2022-08-14T19:35:55.987Z,3.37
2022-08-14T19:38:54.231Z,3.80
2022-08-14T19:41:29.484Z,3.40
2022-08-14T19:44:11.653Z,3.50
2022-08-14T19:47:01.825Z,3.87
2022-08-14T19:50:09.025Z,3.73
2022-08-14T19:52:29.858Z,4.00
2022-08-14T19:55:01.966Z,3.90
2022-08-14T19:57:32.987Z,3.73
2022-08-14T20:00:28.364Z,4.20
2022-08-14T20:03:09.970Z,3.90
2022-08-14T20:05:46.182Z,4.03
2022-08-14T20:09:05.284Z,4.33
2022-08-14T20:12:00.575Z,3.90
2022-08-14T20:14:22.906Z,4.60
2022-08-14T20:17:05.667Z,3.87
2022-08-14T20:19:37.749Z,3.90
2022-08-14T20:22:36.932Z,4.23
2022-08-14T20:25:15.240Z,4.20
2022-08-14T20:27:49.701Z,4.40
2022-08-14T20:30:35.033Z,4.40
2022-08-14T20:33:10.687Z,4.20
2022-08-14T20:35:48.995Z,5.07
2022-08-14T20:38:30.252Z,4.47
2022-08-14T20:41:05.603Z,4.10
2022-08-14T20:43:57.151Z,3.87
2022-08-14T20:46:31.193Z,5.13
2022-08-14T20:49:03.483Z,4.17
2022-08-14T20:51:38.880Z,4.80
2022-08-14T20:54:34.101Z,4.10
2022-08-14T20:57:10.478Z,4.37
2022-08-14T20:59:46.987Z,4.20
2022-08-14T21:02:34.445Z,4.20
2022-08-14T21:05:16.346Z,4.13
2022-08-14T21:07:50.943Z,3.93
2022-08-14T21:10:32.655Z,4.40
2022-08-14T21:13:26.288Z,4.03
2022-08-14T21:15:58.310Z,4.37
2022-08-14T21:18:33.022Z,3.97
2022-08-14T21:21:07.629Z,4.10
2022-08-14T21:23:54.884Z,4.40
2022-08-14T21:26:51.353Z,3.97
2022-08-14T21:29:15.883Z,4.03
2022-08-14T21:31:55.827Z,4.23
2022-08-14T21:34:32.502Z,4.07
2022-08-14T21:37:10.051Z,4.13
2022-08-14T21:39:39.856Z,4.03
2022-08-14T21:42:11.088Z,4.57
2022-08-14T21:44:43.762Z,3.90
2022-08-14T21:47:16.594Z,3.90
2022-08-14T21:49:48.208Z,4.27
2022-08-14T21:52:49.832Z,4.20
2022-08-14T21:55:23.692Z,4.50
2022-08-14T21:58:45.787Z,4.40
2022-08-14T22:00:42.867Z,4.10
2022-08-14T22:03:16.943Z,3.87
2022-08-14T22:05:51.598Z,4.10
2022-08-14T22:08:26.790Z,4.43
2022-08-14T22:10:57.440Z,4.10
2022-08-14T22:13:32.102Z,4.13
2022-08-14T22:16:02.695Z,4.27
2022-08-14T22:18:32.327Z,4.23
2022-08-14T22:21:08.033Z,4.50
2022-08-14T22:23:37.491Z,4.53
2022-08-14T22:26:07.983Z,4.27
2022-08-14T22:28:38.827Z,4.10
2022-08-14T22:31:18.269Z,4.93
2022-08-14T22:33:57.665Z,4.30
2022-08-14T22:36:45.889Z,4.70
2022-08-14T22:39:18.797Z,4.30
2022-08-14T22:42:21.335Z,4.00
2022-08-14T22:44:56.723Z,4.13
2022-08-14T22:47:26.439Z,4.23
2022-08-14T22:50:31.158Z,4.13
2022-08-14T22:53:05.915Z,4.60
2022-08-14T22:55:36.639Z,3.87
2022-08-14T22:58:06.201Z,4.37
2022-08-14T23:00:35.759Z,4.00
2022-08-14T23:03:17.423Z,4.60
2022-08-14T23:05:51.719Z,4.60
2022-08-14T23:08:56.658Z,4.40
2022-08-14T23:11:13.208Z,4.63
2022-08-14T23:13:46.269Z,4.23
2022-08-14T23:16:19.837Z,4.60
2022-08-14T23:18:54.157Z,4.73
2022-08-14T23:21:25.235Z,4.60
2022-08-14T23:23:59.723Z,4.23
2022-08-14T23:26:48.988Z,4.43
2022-08-14T23:29:21.317Z,4.20
2022-08-14T23:31:50.542Z,4.43
2022-08-14T23:34:23.247Z,3.90
2022-08-14T23:36:56.472Z,4.73
2022-08-14T23:39:31.484Z,4.20
2022-08-14T23:42:04.465Z,5.20
2022-08-14T23:44:36.795Z,4.73
2022-08-14T23:47:11.011Z,4.70
2022-08-14T23:50:00.567Z,4.20
2022-08-14T23:52:50.707Z,4.77
2022-08-14T23:55:29.837Z,4.70
2022-08-14T23:58:00.641Z,4.53
